createdAt,value
2022-09-22T00:01:54.085Z,32.93
2022-09-22T00:07:01.246Z,32.94
2022-09-22T00:12:08.408Z,33.00
2022-09-22T00:17:15.552Z,33.10
2022-09-22T00:22:22.748Z,33.08
2022-09-22T00:27:30.015Z,33.07
2022-09-22T00:32:37.172Z,33.02
2022-09-22T00:37:44.407Z,33.13
2022-09-22T00:42:51.605Z,33.15
2022-09-22T00:47:58.838Z,33.10
2022-09-22T00:53:06.090Z,33.08
2022-09-22T00:58:13.347Z,33.08
2022-09-22T01:03:20.529Z,32.96
2022-09-22T01:08:27.803Z,32.87
2022-09-22T01:13:35.039Z,32.77
2022-09-22T01:18:42.213Z,32.84
2022-09-22T01:23:51.123Z,32.81
2022-09-22T01:28:58.399Z,32.86
2022-09-22T01:34:05.524Z,32.81
2022-09-22T01:39:12.759Z,32.96
2022-09-22T01:44:20.003Z,33.04
2022-09-22T01:49:27.205Z,33.04
2022-09-22T01:54:34.389Z,32.97
2022-09-22T01:59:41.701Z,32.89
2022-09-22T02:04:48.899Z,32.84
2022-09-22T02:09:56.128Z,32.87
2022-09-22T02:15:03.410Z,32.92
2022-09-22T02:20:10.631Z,32.93
2022-09-22T02:25:17.805Z,32.86
2022-09-22T02:30:25.045Z,32.94
2022-09-22T02:35:32.239Z,32.78
2022-09-22T02:40:39.654Z,32.72
2022-09-22T02:45:46.879Z,32.67
2022-09-22T02:50:54.047Z,32.60
2022-09-22T02:56:01.250Z,32.60
2022-09-22T03:01:08.565Z,32.66
2022-09-22T03:06:15.662Z,32.70
2022-09-22T03:11:22.844Z,32.82
2022-09-22T03:16:30.037Z,32.76
2022-09-22T03:21:37.277Z,32.79
2022-09-22T03:26:44.516Z,32.62
2022-09-22T03:31:51.732Z,32.69
2022-09-22T03:36:59.007Z,32.68
2022-09-22T03:42:06.237Z,32.56
2022-09-22T03:47:13.473Z,32.57
2022-09-22T03:52:20.646Z,32.57
2022-09-22T03:57:27.852Z,32.48
2022-09-22T04:02:35.184Z,32.43
2022-09-22T04:07:42.327Z,32.37
2022-09-22T04:12:49.532Z,32.37
2022-09-22T04:17:56.808Z,32.36
2022-09-22T04:23:03.991Z,32.48
2022-09-22T04:28:11.152Z,32.49
2022-09-22T04:33:18.347Z,32.58
2022-09-22T04:38:25.477Z,32.53
2022-09-22T04:43:32.652Z,32.57
2022-09-22T04:48:39.899Z,32.53
2022-09-22T04:53:47.062Z,32.60
2022-09-22T04:58:54.225Z,32.51
2022-09-22T05:04:01.402Z,32.41
2022-09-22T05:09:08.569Z,32.28
2022-09-22T05:14:15.777Z,32.27
2022-09-22T05:19:22.990Z,32.35
2022-09-22T05:24:30.219Z,32.22
2022-09-22T05:29:37.480Z,32.13
2022-09-22T05:34:44.755Z,32.12
2022-09-22T05:39:51.942Z,32.15
2022-09-22T05:44:59.431Z,32.19
2022-09-22T05:50:06.707Z,32.23
2022-09-22T05:55:13.978Z,32.22
2022-09-22T06:00:21.276Z,32.45
2022-09-22T06:05:28.544Z,32.39
2022-09-22T06:10:35.706Z,32.42
2022-09-22T06:15:42.940Z,32.45
2022-09-22T06:20:50.211Z,32.39
2022-09-22T06:25:57.374Z,32.41
2022-09-22T06:31:04.610Z,32.61
2022-09-22T06:36:11.888Z,32.60
2022-09-22T06:41:19.135Z,32.70
2022-09-22T06:46:26.400Z,32.74
2022-09-22T06:51:33.624Z,32.79
2022-09-22T06:56:40.837Z,32.88
2022-09-22T07:01:48.225Z,32.94
2022-09-22T07:06:55.378Z,34.12
2022-09-22T07:12:02.621Z,34.26
2022-09-22T07:17:09.835Z,34.03
2022-09-22T07:22:17.045Z,34.04
2022-09-22T07:27:24.315Z,33.97
2022-09-22T07:32:31.502Z,33.89
2022-09-22T07:37:38.723Z,33.82
2022-09-22T07:42:45.939Z,34.21
2022-09-22T07:47:53.153Z,34.59
2022-09-22T07:53:00.375Z,34.35
2022-09-22T07:58:07.528Z,34.30
2022-09-22T08:03:14.744Z,34.17
2022-09-22T08:08:22.012Z,34.12
2022-09-22T08:13:29.222Z,34.20
2022-09-22T08:18:36.414Z,34.06
2022-09-22T08:23:43.573Z,34.06
2022-09-22T08:28:50.799Z,34.03
2022-09-22T08:33:57.990Z,34.16
2022-09-22T08:39:05.464Z,33.99
2022-09-22T08:44:12.389Z,34.25
2022-09-22T08:49:19.640Z,34.17
2022-09-22T08:54:26.857Z,34.05
2022-09-22T08:59:34.066Z,34.25
2022-09-22T09:04:41.224Z,34.14
2022-09-22T09:09:48.501Z,34.36
2022-09-22T09:14:55.761Z,34.33
2022-09-22T09:20:02.999Z,34.17
2022-09-22T09:25:28.015Z,34.16
2022-09-22T09:30:17.518Z,34.52
2022-09-22T09:35:24.598Z,34.63
2022-09-22T09:40:31.976Z,34.31
2022-09-22T09:45:39.108Z,34.63
2022-09-22T09:50:46.381Z,34.54
2022-09-22T09:55:53.590Z,34.69
2022-09-22T10:01:00.822Z,34.48
2022-09-22T10:06:08.069Z,34.74
2022-09-22T10:11:15.336Z,34.58
2022-09-22T10:16:22.684Z,34.70
2022-09-22T10:21:29.760Z,34.84
2022-09-22T10:26:37.062Z,34.78
2022-09-22T10:31:44.247Z,35.02
2022-09-22T10:36:51.469Z,34.98
2022-09-22T10:41:58.710Z,35.06
2022-09-22T10:47:05.854Z,35.00
2022-09-22T10:52:12.989Z,35.11
2022-09-22T10:57:20.190Z,35.18
2022-09-22T11:02:27.468Z,35.41
2022-09-22T11:07:34.641Z,35.93
2022-09-22T11:12:41.883Z,35.50
2022-09-22T11:17:49.100Z,35.45
2022-09-22T11:22:56.324Z,35.45
2022-09-22T11:28:03.554Z,35.64
2022-09-22T11:33:10.703Z,36.07
2022-09-22T11:38:17.928Z,36.05
2022-09-22T11:43:25.133Z,36.25
2022-09-22T11:48:32.367Z,36.24
2022-09-22T11:53:39.573Z,36.10
2022-09-22T11:58:46.814Z,35.93
2022-09-22T12:03:54.018Z,36.06
2022-09-22T12:09:01.296Z,36.00
2022-09-22T12:14:08.527Z,36.29
2022-09-22T12:19:15.697Z,36.13
2022-09-22T12:24:22.905Z,35.96
2022-09-22T12:29:30.188Z,36.12
2022-09-22T12:34:37.438Z,36.13
2022-09-22T12:39:44.688Z,36.40
2022-09-22T12:44:51.994Z,36.13
2022-09-22T12:49:59.189Z,36.14
2022-09-22T12:55:06.352Z,36.29
2022-09-22T13:00:13.574Z,36.38
2022-09-22T13:05:20.777Z,36.37
2022-09-22T13:10:28.125Z,36.50
2022-09-22T13:15:35.408Z,36.42
2022-09-22T13:20:42.584Z,36.52
2022-09-22T13:25:49.835Z,36.47
2022-09-22T13:30:57.189Z,36.61
2022-09-22T13:36:04.351Z,36.55
2022-09-22T13:41:11.589Z,36.72
2022-09-22T13:46:18.953Z,36.90
2022-09-22T13:51:26.126Z,36.57
2022-09-22T13:56:33.307Z,36.76
2022-09-22T14:01:40.583Z,36.64
2022-09-22T14:06:47.706Z,36.78
2022-09-22T14:11:54.933Z,36.51
2022-09-22T14:17:02.257Z,36.69
2022-09-22T14:22:09.437Z,36.78
2022-09-22T14:27:16.681Z,36.54
2022-09-22T14:32:23.934Z,36.46
2022-09-22T14:37:31.069Z,36.65
2022-09-22T14:42:38.278Z,36.47
2022-09-22T14:47:45.512Z,36.58
2022-09-22T14:52:52.680Z,36.80
2022-09-22T14:57:59.920Z,36.57
2022-09-22T15:03:07.097Z,36.68
2022-09-22T15:08:14.125Z,36.90
2022-09-22T15:13:21.289Z,37.16
2022-09-22T15:18:30.808Z,36.80
2022-09-22T15:23:35.836Z,36.86
2022-09-22T15:28:43.020Z,36.71
2022-09-22T15:33:50.298Z,36.78
2022-09-22T15:38:57.517Z,36.78
2022-09-22T15:44:04.877Z,36.83
2022-09-22T15:49:12.174Z,36.68
2022-09-22T15:54:19.358Z,36.69
2022-09-22T15:59:26.545Z,36.74
2022-09-22T16:04:33.823Z,36.78
2022-09-22T16:09:40.981Z,36.69
2022-09-22T16:14:48.239Z,36.69
2022-09-22T16:19:55.772Z,36.68
2022-09-22T16:25:02.873Z,36.60
2022-09-22T16:30:10.077Z,36.69
2022-09-22T16:35:17.304Z,36.58
2022-09-22T16:40:24.585Z,36.55
2022-09-22T16:45:31.692Z,36.60
2022-09-22T16:50:38.888Z,36.72
2022-09-22T16:55:46.799Z,36.78
2022-09-22T17:00:53.361Z,36.86
2022-09-22T17:06:00.576Z,36.93
2022-09-22T17:11:07.716Z,36.96
2022-09-22T17:16:14.948Z,36.87
2022-09-22T17:21:22.145Z,36.94
2022-09-22T17:26:29.588Z,38.44
2022-09-22T17:31:36.908Z,39.05
2022-09-22T17:36:44.042Z,38.38
2022-09-22T17:41:51.265Z,38.01
2022-09-22T17:46:58.592Z,37.72
2022-09-22T17:52:05.834Z,37.52
2022-09-22T17:57:13.019Z,37.32
2022-09-22T18:02:20.193Z,37.20
2022-09-22T18:07:27.395Z,37.02
2022-09-22T18:12:34.546Z,36.89
2022-09-22T18:17:41.789Z,36.81
2022-09-22T18:22:49.012Z,36.80
2022-09-22T18:27:56.170Z,37.12
2022-09-22T18:33:03.369Z,36.76
2022-09-22T18:38:10.638Z,36.58
2022-09-22T18:43:17.805Z,36.37
2022-09-22T18:48:25.111Z,36.24
2022-09-22T18:53:32.336Z,35.98
2022-09-22T18:58:39.558Z,35.89
2022-09-22T19:03:46.741Z,35.73
2022-09-22T19:08:53.999Z,35.58
2022-09-22T19:14:01.248Z,35.40
2022-09-22T19:19:08.443Z,35.24
2022-09-22T19:24:15.644Z,35.24
2022-09-22T19:29:23.157Z,35.27
2022-09-22T19:34:30.502Z,35.20
2022-09-22T19:39:38.064Z,35.00
2022-09-22T19:44:45.379Z,34.85
2022-09-22T19:49:53.800Z,34.76
2022-09-22T19:55:00.999Z,34.61
2022-09-22T20:00:08.234Z,34.34
2022-09-22T20:05:15.460Z,34.25
2022-09-22T20:10:22.714Z,34.13
2022-09-22T20:15:29.946Z,33.98
2022-09-22T20:20:37.107Z,33.84
2022-09-22T20:25:44.328Z,33.68
2022-09-22T20:30:51.699Z,33.83
2022-09-22T20:35:58.835Z,33.91
2022-09-22T20:41:06.213Z,33.66
2022-09-22T20:46:13.598Z,33.64
2022-09-22T20:51:20.597Z,33.51
2022-09-22T20:56:27.793Z,33.41
2022-09-22T21:01:35.055Z,33.43
2022-09-22T21:06:42.174Z,33.33
2022-09-22T21:11:49.425Z,33.86
2022-09-22T21:16:56.642Z,33.96
2022-09-22T21:22:03.861Z,34.10
2022-09-22T21:27:11.141Z,34.18
2022-09-22T21:32:18.362Z,34.21
2022-09-22T21:37:25.566Z,34.14
2022-09-22T21:42:32.757Z,34.17
2022-09-22T21:47:39.929Z,34.48
2022-09-22T21:52:47.138Z,34.37
2022-09-22T21:57:54.371Z,34.21
2022-09-22T22:03:01.550Z,34.14
2022-09-22T22:08:08.747Z,33.90
2022-09-22T22:13:15.979Z,33.97
2022-09-22T22:18:23.167Z,33.42
2022-09-22T22:23:30.386Z,33.16
2022-09-22T22:28:37.562Z,33.66
2022-09-22T22:33:44.744Z,33.22
2022-09-22T22:38:51.981Z,33.48
2022-09-22T22:43:59.174Z,33.27
2022-09-22T22:49:06.361Z,32.90
2022-09-22T22:54:13.591Z,32.60
2022-09-22T22:59:20.848Z,32.17
2022-09-22T23:04:28.003Z,32.33
2022-09-22T23:09:35.178Z,31.98
2022-09-22T23:14:42.441Z,31.89
2022-09-22T23:19:49.665Z,31.75
2022-09-22T23:24:56.928Z,31.66
2022-09-22T23:30:04.240Z,31.77
2022-09-22T23:35:11.328Z,31.43
2022-09-22T23:40:18.571Z,31.49
2022-09-22T23:45:25.813Z,31.33
2022-09-22T23:50:33.054Z,31.15
2022-09-22T23:55:40.260Z,31.21
